sensor_id;sensor_type;location;lat;lon;timestamp;pressure;altitude;pressure_sealevel;temperature;humidity
24752;BME280;27246;52.376;4.628;2022-08-11T00:02:02;102259.66;;;21.72;71.60
24752;BME280;27246;52.376;4.628;2022-08-11T00:07:05;102248.31;;;21.61;72.10
24752;BME280;27246;52.376;4.628;2022-08-11T00:12:15;102248.09;;;21.55;72.14
24752;BME280;27246;52.376;4.628;2022-08-11T00:17:17;102251.38;;;21.46;73.20
24752;BME280;27246;52.376;4.628;2022-08-11T00:22:20;102251.13;;;21.54;72.75
24752;BME280;27246;52.376;4.628;2022-08-11T00:27:34;102259.78;;;21.46;73.00
24752;BME280;27246;52.376;4.628;2022-08-11T00:32:37;102261.06;;;21.50;73.16
24752;BME280;27246;52.376;4.628;2022-08-11T00:37:45;102263.06;;;21.43;73.27
24752;BME280;27246;52.376;4.628;2022-08-11T00:43:00;102268.47;;;21.37;73.84
24752;BME280;27246;52.376;4.628;2022-08-11T01:10:06;102252.97;;;21.22;74.52
24752;BME280;27246;52.376;4.628;2022-08-11T01:32:06;102242.63;;;21.29;73.16
24752;BME280;27246;52.376;4.628;2022-08-11T01:43:23;102239.69;;;21.04;74.35
24752;BME280;27246;52.376;4.628;2022-08-11T01:49:26;102242.72;;;21.02;74.78
24752;BME280;27246;52.376;4.628;2022-08-11T01:55:11;102241.84;;;21.02;74.78
24752;BME280;27246;52.376;4.628;2022-08-11T02:00:25;102244.44;;;20.96;74.87
24752;BME280;27246;52.376;4.628;2022-08-11T02:22:05;102239.50;;;20.85;75.01
24752;BME280;27246;52.376;4.628;2022-08-11T02:28:02;102228.56;;;20.84;74.87
24752;BME280;27246;52.376;4.628;2022-08-11T02:33:19;102226.38;;;20.86;74.69
24752;BME280;27246;52.376;4.628;2022-08-11T02:38:27;102225.09;;;20.82;74.76
24752;BME280;27246;52.376;4.628;2022-08-11T02:43:42;102228.97;;;20.81;74.60
24752;BME280;27246;52.376;4.628;2022-08-11T02:54:38;102218.69;;;20.68;75.35
24752;BME280;27246;52.376;4.628;2022-08-11T02:59:55;102216.13;;;20.60;75.94
24752;BME280;27246;52.376;4.628;2022-08-11T03:15:44;102204.50;;;20.49;75.90
24752;BME280;27246;52.376;4.628;2022-08-11T03:21:23;102201.69;;;20.43;76.05
24752;BME280;27246;52.376;4.628;2022-08-11T03:32:01;102206.41;;;20.42;76.05
24752;BME280;27246;52.376;4.628;2022-08-11T03:42:48;102196.50;;;20.33;75.97
24752;BME280;27246;52.376;4.628;2022-08-11T04:25:33;102212.03;;;20.09;75.55
24752;BME280;27246;52.376;4.628;2022-08-11T04:37:35;102203.84;;;20.07;75.22
24752;BME280;27246;52.376;4.628;2022-08-11T05:00:09;102189.22;;;20.12;74.39
24752;BME280;27246;52.376;4.628;2022-08-11T05:16:50;102194.59;;;20.00;75.05
24752;BME280;27246;52.376;4.628;2022-08-11T05:22:11;102193.75;;;19.93;75.94
24752;BME280;27246;52.376;4.628;2022-08-11T05:27:40;102198.47;;;19.86;76.38
24752;BME280;27246;52.376;4.628;2022-08-11T05:33:10;102207.09;;;20.11;75.36
24752;BME280;27246;52.376;4.628;2022-08-11T05:38:34;102205.81;;;20.07;75.72
24752;BME280;27246;52.376;4.628;2022-08-11T05:43:59;102204.50;;;20.09;75.55
24752;BME280;27246;52.376;4.628;2022-08-11T05:49:24;102213.94;;;20.08;75.80
24752;BME280;27246;52.376;4.628;2022-08-11T05:54:49;102207.91;;;20.25;74.77
24752;BME280;27246;52.376;4.628;2022-08-11T06:00:11;102215.25;;;20.19;74.99
24752;BME280;27246;52.376;4.628;2022-08-11T06:05:15;102216.75;;;20.22;75.23
24752;BME280;27246;52.376;4.628;2022-08-11T06:10:26;102217.22;;;20.45;73.93
24752;BME280;27246;52.376;4.628;2022-08-11T06:15:30;102218.03;;;20.59;73.11
24752;BME280;27246;52.376;4.628;2022-08-11T06:20:44;102229.66;;;20.63;72.99
24752;BME280;27246;52.376;4.628;2022-08-11T06:25:47;102220.38;;;20.69;72.61
24752;BME280;27246;52.376;4.628;2022-08-11T06:30:49;102219.88;;;20.98;71.25
24752;BME280;27246;52.376;4.628;2022-08-11T06:46:45;102211.56;;;20.65;72.81
24752;BME280;27246;52.376;4.628;2022-08-11T06:51:47;102208.75;;;20.65;72.81
24752;BME280;27246;52.376;4.628;2022-08-11T06:56:50;102214.53;;;20.77;72.97
24752;BME280;27246;52.376;4.628;2022-08-11T07:02:36;102220.50;;;21.01;72.19
24752;BME280;27246;52.376;4.628;2022-08-11T07:13:48;102215.59;;;20.96;71.40
24752;BME280;27246;52.376;4.628;2022-08-11T07:19:13;102219.84;;;21.12;69.27
24752;BME280;27246;52.376;4.628;2022-08-11T07:25:02;102208.13;;;21.22;67.96
24752;BME280;27246;52.376;4.628;2022-08-11T07:30:24;102208.94;;;21.42;67.38
24752;BME280;27246;52.376;4.628;2022-08-11T07:35:35;102208.84;;;21.55;65.48
24752;BME280;27246;52.376;4.628;2022-08-11T07:40:39;102207.94;;;21.62;65.17
24752;BME280;27246;52.376;4.628;2022-08-11T07:45:44;102199.88;;;21.79;63.72
24752;BME280;27246;52.376;4.628;2022-08-11T07:51:05;102203.81;;;21.96;60.96
24752;BME280;27246;52.376;4.628;2022-08-11T07:56:25;102204.53;;;22.16;61.65
24752;BME280;27246;52.376;4.628;2022-08-11T08:01:48;102201.31;;;22.38;59.90
24752;BME280;27246;52.376;4.628;2022-08-11T08:07:09;102201.19;;;22.51;56.05
24752;BME280;27246;52.376;4.628;2022-08-11T08:12:30;102198.94;;;22.60;57.70
24752;BME280;27246;52.376;4.628;2022-08-11T08:17:51;102209.50;;;22.83;55.52
24752;BME280;27246;52.376;4.628;2022-08-11T08:23:25;102201.38;;;23.12;53.56
24752;BME280;27246;52.376;4.628;2022-08-11T08:28:34;102213.22;;;23.32;53.94
24752;BME280;27246;52.376;4.628;2022-08-11T08:33:39;102201.97;;;23.51;53.09
24752;BME280;27246;52.376;4.628;2022-08-11T08:38:47;102209.72;;;23.67;51.31
24752;BME280;27246;52.376;4.628;2022-08-11T08:43:52;102209.16;;;23.77;49.34
24752;BME280;27246;52.376;4.628;2022-08-11T08:49:00;102203.69;;;24.06;44.62
24752;BME280;27246;52.376;4.628;2022-08-11T08:54:31;102201.41;;;24.26;45.65
24752;BME280;27246;52.376;4.628;2022-08-11T08:59:41;102203.03;;;24.46;43.76
24752;BME280;27246;52.376;4.628;2022-08-11T09:04:50;102199.22;;;24.52;43.07
24752;BME280;27246;52.376;4.628;2022-08-11T09:09:54;102191.47;;;24.71;41.19
24752;BME280;27246;52.376;4.628;2022-08-11T09:14:57;102195.03;;;24.78;40.16
24752;BME280;27246;52.376;4.628;2022-08-11T09:20:11;102196.03;;;24.96;39.89
24752;BME280;27246;52.376;4.628;2022-08-11T09:25:13;102192.81;;;25.04;40.64
24752;BME280;27246;52.376;4.628;2022-08-11T09:30:34;102186.34;;;25.32;39.62
24752;BME280;27246;52.376;4.628;2022-08-11T09:35:38;102191.06;;;25.43;39.37
24752;BME280;27246;52.376;4.628;2022-08-11T09:40:46;102181.69;;;25.54;40.22
24752;BME280;27246;52.376;4.628;2022-08-11T09:45:58;102188.94;;;25.79;38.62
24752;BME280;27246;52.376;4.628;2022-08-11T09:51:01;102191.78;;;25.96;37.83
24752;BME280;27246;52.376;4.628;2022-08-11T09:56:09;102176.19;;;26.10;36.80
24752;BME280;27246;52.376;4.628;2022-08-11T10:01:34;102175.25;;;26.22;37.72
24752;BME280;27246;52.376;4.628;2022-08-11T10:06:43;102165.34;;;26.19;38.09
24752;BME280;27246;52.376;4.628;2022-08-11T10:12:11;102164.31;;;26.42;38.13
24752;BME280;27246;52.376;4.628;2022-08-11T10:17:16;102160.81;;;26.35;38.20
24752;BME280;27246;52.376;4.628;2022-08-11T10:22:19;102147.56;;;26.58;37.61
24752;BME280;27246;52.376;4.628;2022-08-11T10:27:41;102154.22;;;26.68;37.35
24752;BME280;27246;52.376;4.628;2022-08-11T10:33:03;102149.38;;;26.86;35.61
24752;BME280;27246;52.376;4.628;2022-08-11T10:38:38;102149.44;;;27.13;34.03
24752;BME280;27246;52.376;4.628;2022-08-11T10:43:41;102139.09;;;27.24;33.62
24752;BME280;27246;52.376;4.628;2022-08-11T10:49:03;102142.09;;;27.39;33.54
24752;BME280;27246;52.376;4.628;2022-08-11T10:54:05;102132.06;;;27.26;35.13
24752;BME280;27246;52.376;4.628;2022-08-11T10:59:26;102132.47;;;27.67;34.60
24752;BME280;27246;52.376;4.628;2022-08-11T11:09:43;102112.25;;;27.86;33.80
24752;BME280;27246;52.376;4.628;2022-08-11T11:14:49;102125.75;;;27.73;35.36
24752;BME280;27246;52.376;4.628;2022-08-11T11:20:34;102123.84;;;28.17;35.02
24752;BME280;27246;52.376;4.628;2022-08-11T11:25:54;102128.97;;;28.20;33.63
24752;BME280;27246;52.376;4.628;2022-08-11T11:36:56;102122.16;;;28.21;34.25
24752;BME280;27246;52.376;4.628;2022-08-11T11:42:00;102126.94;;;28.58;32.96
24752;BME280;27246;52.376;4.628;2022-08-11T11:47:04;102125.25;;;28.62;31.96
24752;BME280;27246;52.376;4.628;2022-08-11T11:52:07;102123.31;;;28.67;33.23
24752;BME280;27246;52.376;4.628;2022-08-11T11:57:11;102113.91;;;28.67;32.36
24752;BME280;27246;52.376;4.628;2022-08-11T12:02:34;102116.19;;;28.65;30.60
24752;BME280;27246;52.376;4.628;2022-08-11T12:07:37;102110.66;;;28.90;30.68
24752;BME280;27246;52.376;4.628;2022-08-11T12:13:15;102107.00;;;29.05;31.03
24752;BME280;27246;52.376;4.628;2022-08-11T12:18:37;102101.34;;;29.16;30.51
24752;BME280;27246;52.376;4.628;2022-08-11T12:23:41;102096.53;;;29.21;29.47
24752;BME280;27246;52.376;4.628;2022-08-11T12:29:07;102090.84;;;29.06;30.60
24752;BME280;27246;52.376;4.628;2022-08-11T12:34:15;102089.47;;;29.29;30.45
24752;BME280;27246;52.376;4.628;2022-08-11T12:39:22;102090.31;;;29.29;29.07
24752;BME280;27246;52.376;4.628;2022-08-11T12:45:11;102090.31;;;29.24;31.44
24752;BME280;27246;52.376;4.628;2022-08-11T12:50:29;102081.25;;;29.38;29.13
24752;BME280;27246;52.376;4.628;2022-08-11T12:55:50;102062.53;;;29.52;29.02
24752;BME280;27246;52.376;4.628;2022-08-11T13:01:12;102053.44;;;29.76;29.82
24752;BME280;27246;52.376;4.628;2022-08-11T13:06:33;102053.44;;;29.81;29.43
24752;BME280;27246;52.376;4.628;2022-08-11T13:11:35;102050.63;;;29.60;30.02
24752;BME280;27246;52.376;4.628;2022-08-11T13:16:58;102040.41;;;29.49;30.06
24752;BME280;27246;52.376;4.628;2022-08-11T13:22:21;102046.06;;;29.69;29.57
24752;BME280;27246;52.376;4.628;2022-08-11T13:27:25;102047.22;;;29.63;29.16
24752;BME280;27246;52.376;4.628;2022-08-11T13:32:27;102037.84;;;29.63;30.01
24752;BME280;27246;52.376;4.628;2022-08-11T13:37:29;102044.06;;;29.80;29.70
24752;BME280;27246;52.376;4.628;2022-08-11T13:42:51;102043.78;;;29.71;29.83
24752;BME280;27246;52.376;4.628;2022-08-11T13:47:57;102033.56;;;29.91;30.27
24752;BME280;27246;52.376;4.628;2022-08-11T13:52:59;102035.25;;;29.92;28.71
24752;BME280;27246;52.376;4.628;2022-08-11T13:58:01;102028.16;;;30.00;29.00
24752;BME280;27246;52.376;4.628;2022-08-11T14:03:24;102025.59;;;29.83;29.05
24752;BME280;27246;52.376;4.628;2022-08-11T14:08:46;102019.06;;;29.82;29.85
24752;BME280;27246;52.376;4.628;2022-08-11T14:13:51;102014.25;;;29.73;29.57
24752;BME280;27246;52.376;4.628;2022-08-11T14:18:57;102011.66;;;30.02;29.31
24752;BME280;27246;52.376;4.628;2022-08-11T14:24:02;101998.59;;;29.96;29.92
24752;BME280;27246;52.376;4.628;2022-08-11T14:29:08;102004.56;;;29.94;29.25
24752;BME280;27246;52.376;4.628;2022-08-11T14:34:11;101990.09;;;29.96;30.29
24752;BME280;27246;52.376;4.628;2022-08-11T14:39:16;101986.69;;;29.99;29.81
24752;BME280;27246;52.376;4.628;2022-08-11T14:44:19;101986.03;;;30.12;28.60
24752;BME280;27246;52.376;4.628;2022-08-11T14:49:41;101974.13;;;30.15;29.01
24752;BME280;27246;52.376;4.628;2022-08-11T14:55:04;101985.00;;;29.93;29.41
24752;BME280;27246;52.376;4.628;2022-08-11T15:00:25;101975.59;;;29.92;28.50
24752;BME280;27246;52.376;4.628;2022-08-11T15:05:27;101970.16;;;30.11;28.54
24752;BME280;27246;52.376;4.628;2022-08-11T15:10:29;101970.75;;;29.98;28.29
24752;BME280;27246;52.376;4.628;2022-08-11T15:15:32;101968.78;;;29.83;28.60
24752;BME280;27246;52.376;4.628;2022-08-11T15:20:54;101961.66;;;29.80;28.90
24752;BME280;27246;52.376;4.628;2022-08-11T15:31:46;101952.03;;;29.97;28.46
24752;BME280;27246;52.376;4.628;2022-08-11T15:37:08;101942.69;;;29.70;29.01
24752;BME280;27246;52.376;4.628;2022-08-11T15:42:28;101946.94;;;29.73;29.73
24752;BME280;27246;52.376;4.628;2022-08-11T15:47:55;101938.75;;;29.51;29.08
24752;BME280;27246;52.376;4.628;2022-08-11T15:53:27;101939.34;;;29.43;28.93
24752;BME280;27246;52.376;4.628;2022-08-11T15:58:37;101933.94;;;29.21;30.44
24752;BME280;27246;52.376;4.628;2022-08-11T16:04:23;101925.13;;;29.38;30.74
24752;BME280;27246;52.376;4.628;2022-08-11T16:09:29;101924.00;;;29.34;30.40
24752;BME280;27246;52.376;4.628;2022-08-11T16:14:51;101917.47;;;29.23;31.08
24752;BME280;27246;52.376;4.628;2022-08-11T16:20:14;101922.84;;;29.19;31.27
24752;BME280;27246;52.376;4.628;2022-08-11T16:25:22;101916.63;;;29.02;30.93
24752;BME280;27246;52.376;4.628;2022-08-11T16:30:44;101912.66;;;28.98;31.01
24752;BME280;27246;52.376;4.628;2022-08-11T16:35:47;101907.56;;;29.00;31.70
24752;BME280;27246;52.376;4.628;2022-08-11T16:41:14;101914.06;;;28.95;31.90
24752;BME280;27246;52.376;4.628;2022-08-11T16:46:37;101910.66;;;28.93;32.46
24752;BME280;27246;52.376;4.628;2022-08-11T16:51:59;101904.44;;;28.76;32.84
24752;BME280;27246;52.376;4.628;2022-08-11T16:57:14;101905.75;;;28.47;33.88
24752;BME280;27246;52.376;4.628;2022-08-11T17:02:39;101899.50;;;28.40;33.75
24752;BME280;27246;52.376;4.628;2022-08-11T17:08:04;101886.25;;;27.88;34.83
24752;BME280;27246;52.376;4.628;2022-08-11T17:13:34;101891.31;;;27.76;37.37
24752;BME280;27246;52.376;4.628;2022-08-11T17:18:44;101888.47;;;27.76;35.22
24752;BME280;27246;52.376;4.628;2022-08-11T17:23:52;101890.84;;;28.04;34.80
24752;BME280;27246;52.376;4.628;2022-08-11T17:28:58;101889.13;;;27.93;35.28
24752;BME280;27246;52.376;4.628;2022-08-11T17:34:01;101888.31;;;28.03;35.39
24752;BME280;27246;52.376;4.628;2022-08-11T17:39:24;101887.22;;;27.51;37.14
24752;BME280;27246;52.376;4.628;2022-08-11T17:44:31;101893.66;;;27.46;38.92
24752;BME280;27246;52.376;4.628;2022-08-11T17:49:52;101890.88;;;27.51;39.45
24752;BME280;27246;52.376;4.628;2022-08-11T17:54:55;101889.56;;;27.27;40.33
24752;BME280;27246;52.376;4.628;2022-08-11T18:00:36;101888.81;;;27.42;41.79
24752;BME280;27246;52.376;4.628;2022-08-11T18:05:41;101890.41;;;27.27;42.95
24752;BME280;27246;52.376;4.628;2022-08-11T18:10:45;101899.59;;;27.07;43.70
24752;BME280;27246;52.376;4.628;2022-08-11T18:16:07;101898.66;;;26.97;44.44
24752;BME280;27246;52.376;4.628;2022-08-11T18:21:29;101890.94;;;26.87;45.00
24752;BME280;27246;52.376;4.628;2022-08-11T18:27:14;101891.59;;;26.67;44.82
24752;BME280;27246;52.376;4.628;2022-08-11T18:32:36;101896.06;;;26.63;45.29
24752;BME280;27246;52.376;4.628;2022-08-11T18:38:19;101908.91;;;26.48;45.54
24752;BME280;27246;52.376;4.628;2022-08-11T18:43:45;101905.50;;;26.46;45.88
24752;BME280;27246;52.376;4.628;2022-08-11T18:49:13;101906.22;;;26.31;46.39
24752;BME280;27246;52.376;4.628;2022-08-11T18:54:57;101929.03;;;26.25;47.02
24752;BME280;27246;52.376;4.628;2022-08-11T19:00:18;101917.63;;;26.20;47.08
24752;BME280;27246;52.376;4.628;2022-08-11T19:05:39;101921.16;;;26.10;47.60
24752;BME280;27246;52.376;4.628;2022-08-11T19:11:19;101918.00;;;26.06;47.99
24752;BME280;27246;52.376;4.628;2022-08-11T19:16:44;101924.66;;;25.95;48.42
24752;BME280;27246;52.376;4.628;2022-08-11T19:22:06;101928.09;;;25.80;48.65
24752;BME280;27246;52.376;4.628;2022-08-11T19:27:27;101931.06;;;25.68;49.27
24752;BME280;27246;52.376;4.628;2022-08-11T19:32:49;101934.94;;;25.62;49.39
24752;BME280;27246;52.376;4.628;2022-08-11T19:38:11;101936.09;;;25.49;49.63
24752;BME280;27246;52.376;4.628;2022-08-11T19:43:32;101944.41;;;25.39;49.65
24752;BME280;27246;52.376;4.628;2022-08-11T19:48:54;101946.97;;;25.41;49.90
24752;BME280;27246;52.376;4.628;2022-08-11T19:54:16;101950.16;;;25.27;49.89
24752;BME280;27246;52.376;4.628;2022-08-11T19:59:37;101952.38;;;25.25;49.83
24752;BME280;27246;52.376;4.628;2022-08-11T20:04:58;101949.97;;;25.17;50.13
24752;BME280;27246;52.376;4.628;2022-08-11T20:10:20;101952.63;;;25.07;50.23
24752;BME280;27246;52.376;4.628;2022-08-11T20:15:41;101939.13;;;25.09;50.41
24752;BME280;27246;52.376;4.628;2022-08-11T20:21:03;101948.59;;;25.03;50.28
24752;BME280;27246;52.376;4.628;2022-08-11T20:26:33;101950.75;;;24.96;50.56
24752;BME280;27246;52.376;4.628;2022-08-11T20:31:54;101951.03;;;24.82;50.69
24752;BME280;27246;52.376;4.628;2022-08-11T20:37:16;101950.19;;;24.82;50.50
24752;BME280;27246;52.376;4.628;2022-08-11T20:42:37;101956.56;;;24.77;50.60
24752;BME280;27246;52.376;4.628;2022-08-11T20:48:01;101953.56;;;24.67;50.92
24752;BME280;27246;52.376;4.628;2022-08-11T20:53:24;101965.16;;;24.53;51.31
24752;BME280;27246;52.376;4.628;2022-08-11T20:58:46;101957.44;;;24.49;51.33
24752;BME280;27246;52.376;4.628;2022-08-11T21:04:19;101960.25;;;24.49;51.64
24752;BME280;27246;52.376;4.628;2022-08-11T21:09:56;101956.38;;;24.38;51.95
24752;BME280;27246;52.376;4.628;2022-08-11T21:15:29;101959.13;;;24.33;52.33
24752;BME280;27246;52.376;4.628;2022-08-11T21:21:05;101960.19;;;24.32;52.48
24752;BME280;27246;52.376;4.628;2022-08-11T21:26:29;101946.88;;;24.27;52.52
24752;BME280;27246;52.376;4.628;2022-08-11T21:31:52;101954.56;;;24.20;52.63
24752;BME280;27246;52.376;4.628;2022-08-11T21:37:14;101940.41;;;24.15;53.04
24752;BME280;27246;52.376;4.628;2022-08-11T21:42:40;101938.81;;;24.07;53.23
24752;BME280;27246;52.376;4.628;2022-08-11T21:48:01;101943.72;;;24.00;53.47
24752;BME280;27246;52.376;4.628;2022-08-11T21:53:25;101948.03;;;23.91;53.88
24752;BME280;27246;52.376;4.628;2022-08-11T21:58:47;101948.75;;;23.98;53.64
24752;BME280;27246;52.376;4.628;2022-08-11T22:04:09;101953.69;;;23.91;54.00
24752;BME280;27246;52.376;4.628;2022-08-11T22:09:30;101947.69;;;23.87;54.17
24752;BME280;27246;52.376;4.628;2022-08-11T22:14:51;101945.22;;;23.91;54.20
24752;BME280;27246;52.376;4.628;2022-08-11T22:20:11;101945.00;;;23.81;54.60
24752;BME280;27246;52.376;4.628;2022-08-11T22:25:32;101946.59;;;23.77;54.87
24752;BME280;27246;52.376;4.628;2022-08-11T22:31:00;101942.06;;;23.75;55.17
24752;BME280;27246;52.376;4.628;2022-08-11T22:36:21;101944.78;;;23.70;55.45
24752;BME280;27246;52.376;4.628;2022-08-11T22:41:42;101944.16;;;23.68;55.66
24752;BME280;27246;52.376;4.628;2022-08-11T22:47:03;101955.91;;;23.65;55.89
24752;BME280;27246;52.376;4.628;2022-08-11T22:52:28;101957.00;;;23.64;56.33
24752;BME280;27246;52.376;4.628;2022-08-11T22:57:50;101949.28;;;23.60;56.43
24752;BME280;27246;52.376;4.628;2022-08-11T23:03:12;101954.06;;;23.59;56.74
24752;BME280;27246;52.376;4.628;2022-08-11T23:08:38;101958.94;;;23.52;57.26
24752;BME280;27246;52.376;4.628;2022-08-11T23:14:01;101953.59;;;23.50;57.53
24752;BME280;27246;52.376;4.628;2022-08-11T23:19:22;101959.56;;;23.42;58.02
24752;BME280;27246;52.376;4.628;2022-08-11T23:25:02;101960.50;;;23.24;58.78
24752;BME280;27246;52.376;4.628;2022-08-11T23:30:23;101958.31;;;23.26;58.90
24752;BME280;27246;52.376;4.628;2022-08-11T23:35:45;101952.06;;;23.24;59.24
24752;BME280;27246;52.376;4.628;2022-08-11T23:41:10;101954.50;;;23.09;59.87
24752;BME280;27246;52.376;4.628;2022-08-11T23:46:32;101954.03;;;23.12;59.87
24752;BME280;27246;52.376;4.628;2022-08-11T23:51:53;101949.22;;;23.01;60.20
24752;BME280;27246;52.376;4.628;2022-08-11T23:57:14;101949.72;;;22.98;60.53
